Terminal Aerodrome Forecast
Issued by NWS

Home | Current Version | Previous Version | Text Only | Print | Product List | Glossary On
Versions: 1 2 3 4 5 6 7 8 9 10 11 12 13
155
FTUS43 KGRR 141140
TAFJXN
TAF
KJXN 141140Z 1412/1512 14005KT P6SM BKN250
     FM141600 15010KT P6SM BKN120
     FM150100 15010KT 4SM -SN OVC025
     FM150500 15010KT 2SM -SN OVC015=

USA.gov is the U.S. government's official web portal to all federal, state and local government web resources and services.